Terminal Aerodrome Forecast
Issued by NWS Charleston, WV

Current Version | Previous Version | Graphics & Text | Print | Product List | Glossary On
Versions: 1 2 3 4 5 6 7 8 9 10 11 12 13 14 15 16 17 18 19 20 21
311
FTUS41 KRLX 231610 AAC
TAFHTS
TAF AMD
KHTS 231610Z 2316/2412 VRB03KT P6SM SCT250
     FM231900 00000KT P6SM FEW045
     FM240500 00000KT 4SM BR SCT250
     FM240600 00000KT 2SM BR SCT250
     FM240700 00000KT 1/2SM FG VV001=

USA.gov is the U.S. government's official web portal to all federal, state and local government web resources and services.